Humidity-temperature Sensor

Selected Measurement Type: Air Temperature

 
Air Temperature [°C]     6 entries per hour
Showing data from 2/13/2017 (00:00:00 Z) to 2/10/2017 (00:01:00 Z)
Previous Next [ Day | 3-Days | 7-Days ]
First Last
Prev [ Day | 3-Days | 7-Days ] Next
First Last

Start Time:     :
End Time:     :     
Time (in GMT) :00 :50 :40 :30 :20 :10
Previous Next [ Day | 3-Days | 7-Days ]
First Last
Prev [ Day | 3-Days | 7-Days ] Next
First Last


123 => good data
MM => data is determined as missing
-- => data not received/configured
Back to Top Back to Top
2/13/2017 00:00 to 23:10 26.46 26.54 26.47 26.44 26.42 26.49
2/12/2017 23:00 to 22:10 26.41 26.34 26.31 26.38 26.27 26.33
2/12/2017 22:00 to 21:10 26.30 26.29 26.34 26.31 26.25 26.25
2/12/2017 21:00 to 20:10 26.34 26.34 26.36 26.31 26.30 26.22
2/12/2017 20:00 to 19:10 26.29 26.32 26.24 26.16 26.21 26.17
2/12/2017 19:00 to 18:10 26.19 26.17 26.14 26.09 26.12 26.10
2/12/2017 18:00 to 17:10 26.12 26.09 26.13 26.14 26.11 26.13
2/12/2017 17:00 to 16:10 26.09 26.11 26.13 26.11 26.12 26.12
2/12/2017 16:00 to 15:10 26.12 26.09 26.04 25.97 25.87 25.78
2/12/2017 15:00 to 14:10 25.60 25.57 25.51 25.54 25.54 25.52
2/12/2017 14:00 to 13:10 25.56 25.54 25.54 25.54 25.50 25.48
2/12/2017 13:00 to 12:10 25.51 25.56 25.52 25.49 25.54 25.53
2/12/2017 12:00 to 11:10 25.50 25.49 25.53 25.57 25.42 25.44
2/12/2017 11:00 to 10:10 25.51 25.48 25.45 25.51 25.52 25.48
2/12/2017 10:00 to 9:10 25.56 25.58 25.54 25.58 25.56 25.58
2/12/2017 09:00 to 8:10 25.62 25.64 25.67 25.69 25.70 25.72
2/12/2017 08:00 to 7:10 25.74 25.75 25.73 25.80 25.82 25.85
2/12/2017 07:00 to 6:10 25.85 25.90 25.89 25.88 25.90 25.90
2/12/2017 06:00 to 5:10 25.91 25.91 25.92 26.00 25.98 26.00
2/12/2017 05:00 to 4:10 26.00 26.01 26.05 26.02 26.04 26.09
2/12/2017 04:00 to 3:10 26.11 26.04 25.94 26.03 26.04 26.05
2/12/2017 03:00 to 2:10 26.10 26.06 26.13 26.13 26.09 26.15
2/12/2017 02:00 to 1:10 26.18 26.27 26.32 26.38 26.38 26.42
2/12/2017 01:00 to 0:10 26.45 26.45 26.43 26.41 26.36 26.34
2/12/2017 00:00 to 23:10 26.40 26.39 26.40 26.35 26.38 26.39
2/11/2017 23:00 to 22:10 26.35 26.32 26.38 26.35 26.31 26.29
2/11/2017 22:00 to 21:10 26.34 26.30 26.32 26.29 26.27 26.23
2/11/2017 21:00 to 20:10 26.18 26.21 26.19 26.14 26.21 26.17
2/11/2017 20:00 to 19:10 26.15 26.19 26.18 26.13 26.18 26.16
2/11/2017 19:00 to 18:10 26.18 26.17 26.20 26.19 26.18 26.12
2/11/2017 18:00 to 17:10 26.19 26.22 26.19 26.19 26.16 26.17
2/11/2017 17:00 to 16:10 26.17 26.19 26.23 26.18 26.25 26.15
2/11/2017 16:00 to 15:10 26.20 26.17 26.13 26.05 25.94 25.82
2/11/2017 15:00 to 14:10 -- -- -- -- -- --
2/11/2017 14:00 to 13:10 25.65 25.60 25.59 25.58 25.61 25.60
2/11/2017 13:00 to 12:10 25.62 25.59 25.59 25.62 25.61 25.70
2/11/2017 12:00 to 11:10 25.62 25.59 25.59 25.64 25.60 25.61
2/11/2017 11:00 to 10:10 25.59 25.54 25.64 25.62 25.57 25.65
2/11/2017 10:00 to 9:10 25.63 25.66 25.62 25.69 25.69 25.67
2/11/2017 09:00 to 8:10 25.68 25.70 25.72 25.74 25.74 25.73
2/11/2017 08:00 to 7:10 25.76 25.74 25.78 25.78 25.77 25.80
2/11/2017 07:00 to 6:10 25.77 25.76 25.76 25.85 25.86 25.87
2/11/2017 06:00 to 5:10 25.91 25.92 25.93 25.96 25.99 26.00
2/11/2017 05:00 to 4:10 26.01 26.06 26.04 26.06 26.04 26.06
2/11/2017 04:00 to 3:10 26.04 26.10 26.06 26.13 26.12 26.16
2/11/2017 03:00 to 2:10 26.13 26.13 26.20 26.17 26.18 26.23
2/11/2017 02:00 to 1:10 26.27 26.39 26.49 26.47 26.53 26.52
2/11/2017 01:00 to 0:10 26.50 26.50 26.47 26.50 26.54 26.47
2/11/2017 00:00 to 23:10 26.39 26.35 26.35 26.29 26.29 26.35
2/10/2017 23:00 to 22:10 26.26 26.27 26.23 26.25 26.21 26.17
2/10/2017 22:00 to 21:10 26.15 26.08 26.01 26.03 26.07 26.01
2/10/2017 21:00 to 20:10 26.00 25.96 25.87 25.78 25.89 25.69
2/10/2017 20:00 to 19:10 25.69 25.75 25.73 25.65 25.66 25.59
2/10/2017 19:00 to 18:10 25.46 25.38 25.07 25.08 25.06 25.14
2/10/2017 18:00 to 17:10 25.17 25.81 25.67 25.82 25.80 25.93
2/10/2017 17:00 to 16:10 25.96 25.77 25.79 25.63 25.58 25.51
2/10/2017 16:00 to 15:10 25.25 25.32 25.13 25.07 24.86 25.15
2/10/2017 15:00 to 14:10 25.15 25.04 25.07 25.25 25.36 25.53
2/10/2017 14:00 to 13:10 25.58 25.56 25.59 25.55 25.63 25.58
2/10/2017 13:00 to 12:10 25.60 25.54 25.53 25.57 25.54 25.58
2/10/2017 12:00 to 11:10 25.52 25.61 25.61 25.64 25.63 25.71
2/10/2017 11:00 to 10:10 25.68 25.70 25.74 25.69 25.73 25.74
2/10/2017 10:00 to 9:10 25.68 25.70 25.73 25.76 25.72 25.72
2/10/2017 09:00 to 8:10 25.72 25.78 25.79 25.80 25.82 25.77
2/10/2017 08:00 to 7:10 25.82 25.82 25.83 25.86 25.86 25.88
2/10/2017 07:00 to 6:10 25.90 25.92 25.95 25.94 26.01 26.03
2/10/2017 06:00 to 5:10 26.03 25.99 26.03 26.08 26.09 26.13
2/10/2017 05:00 to 4:10 26.15 26.16 26.18 26.09 26.11 26.09
2/10/2017 04:00 to 3:10 26.09 26.05 26.12 26.10 26.07 26.10
2/10/2017 03:00 to 2:10 26.17 25.99 25.96 25.77 25.90 25.93
2/10/2017 02:00 to 1:10 26.05 26.00 25.87 24.93 24.39 24.85
2/10/2017 01:00 to 0:10 25.03 26.30 26.43 26.43 26.31 26.32